Terminal Aerodrome Forecast
Issued by NWS

Home | Current Version | Previous Version | Graphics & Text | Print | Product List | Glossary On
Versions: 1 2 3 4 5 6 7 8 9 10 11 12 13 14 15 16 17 18 19 20 21
000
FTUS41 KCLE 231700
TAFFDY
TAF
KFDY 231739Z 2318/2418 15010KT P6SM SCT025 OVC035
      TEMPO 2320/2322 5SM -SHRA BKN025
     FM232200 13012G18KT 4SM -SHRA SCT006 OVC012
     FM240200 12015G25KT 2SM -SHRA OVC006
     FM240800 19015G25KT 5SM BR VCSH BKN012 OVC020=

USA.gov is the U.S. government's official web portal to all federal, state and local government web resources and services.